sensor_id;sensor_type;location;lat;lon;timestamp;temperature;humidity
12303;DHT22;6214;48.012;7.862;2023-04-04T00:00:25;2.50;99.90
12303;DHT22;6214;48.012;7.862;2023-04-04T00:02:52;2.50;99.90
12303;DHT22;6214;48.012;7.862;2023-04-04T00:05:20;2.50;99.90
12303;DHT22;6214;48.012;7.862;2023-04-04T00:07:47;2.70;99.90
12303;DHT22;6214;48.012;7.862;2023-04-04T00:10:14;2.70;99.90
12303;DHT22;6214;48.012;7.862;2023-04-04T00:12:42;2.50;99.90
12303;DHT22;6214;48.012;7.862;2023-04-04T00:15:09;2.40;99.90
12303;DHT22;6214;48.012;7.862;2023-04-04T00:17:37;2.20;99.90
12303;DHT22;6214;48.012;7.862;2023-04-04T00:20:05;2.30;99.90
12303;DHT22;6214;48.012;7.862;2023-04-04T00:22:32;2.40;99.90
12303;DHT22;6214;48.012;7.862;2023-04-04T00:24:59;2.50;99.90
12303;DHT22;6214;48.012;7.862;2023-04-04T00:27:25;2.60;99.90
12303;DHT22;6214;48.012;7.862;2023-04-04T00:29:52;2.50;99.90
12303;DHT22;6214;48.012;7.862;2023-04-04T00:32:19;2.50;99.90
12303;DHT22;6214;48.012;7.862;2023-04-04T00:34:55;2.40;99.90
12303;DHT22;6214;48.012;7.862;2023-04-04T00:37:23;2.20;99.90
12303;DHT22;6214;48.012;7.862;2023-04-04T00:39:50;2.20;99.90
12303;DHT22;6214;48.012;7.862;2023-04-04T00:42:17;2.30;99.90
12303;DHT22;6214;48.012;7.862;2023-04-04T00:44:44;2.20;99.90
12303;DHT22;6214;48.012;7.862;2023-04-04T00:47:11;2.20;99.90
12303;DHT22;6214;48.012;7.862;2023-04-04T00:49:38;2.30;99.90
12303;DHT22;6214;48.012;7.862;2023-04-04T00:52:05;2.10;99.90
12303;DHT22;6214;48.012;7.862;2023-04-04T00:54:34;2.10;99.90
12303;DHT22;6214;48.012;7.862;2023-04-04T00:57:02;2.20;99.90
12303;DHT22;6214;48.012;7.862;2023-04-04T00:59:33;2.30;99.90
12303;DHT22;6214;48.012;7.862;2023-04-04T01:02:00;2.20;99.90
12303;DHT22;6214;48.012;7.862;2023-04-04T01:04:27;2.20;99.90
12303;DHT22;6214;48.012;7.862;2023-04-04T01:06:57;1.90;99.90
12303;DHT22;6214;48.012;7.862;2023-04-04T01:09:25;1.90;99.90
12303;DHT22;6214;48.012;7.862;2023-04-04T01:11:53;1.70;99.90
12303;DHT22;6214;48.012;7.862;2023-04-04T01:14:21;1.90;99.90
12303;DHT22;6214;48.012;7.862;2023-04-04T01:16:49;2.00;99.90
12303;DHT22;6214;48.012;7.862;2023-04-04T01:19:55;2.00;99.90
12303;DHT22;6214;48.012;7.862;2023-04-04T01:22:27;2.10;99.90
12303;DHT22;6214;48.012;7.862;2023-04-04T01:24:57;2.00;99.90
12303;DHT22;6214;48.012;7.862;2023-04-04T01:27:24;2.00;99.90
12303;DHT22;6214;48.012;7.862;2023-04-04T01:29:52;1.90;99.90
12303;DHT22;6214;48.012;7.862;2023-04-04T01:35:11;2.40;99.90
12303;DHT22;6214;48.012;7.862;2023-04-04T01:40:34;2.90;99.90
12303;DHT22;6214;48.012;7.862;2023-04-04T01:43:03;3.30;99.90
12303;DHT22;6214;48.012;7.862;2023-04-04T01:45:30;3.50;99.90
12303;DHT22;6214;48.012;7.862;2023-04-04T01:47:58;3.60;99.90
12303;DHT22;6214;48.012;7.862;2023-04-04T01:50:25;3.70;99.90
12303;DHT22;6214;48.012;7.862;2023-04-04T01:52:52;3.80;99.90
12303;DHT22;6214;48.012;7.862;2023-04-04T01:55:19;3.60;99.90
12303;DHT22;6214;48.012;7.862;2023-04-04T01:57:47;3.50;99.90
12303;DHT22;6214;48.012;7.862;2023-04-04T02:00:14;3.60;99.90
12303;DHT22;6214;48.012;7.862;2023-04-04T02:02:42;3.70;99.90
12303;DHT22;6214;48.012;7.862;2023-04-04T02:05:09;3.70;99.90
12303;DHT22;6214;48.012;7.862;2023-04-04T02:07:36;3.60;99.90
12303;DHT22;6214;48.012;7.862;2023-04-04T02:10:04;3.50;99.90
12303;DHT22;6214;48.012;7.862;2023-04-04T02:12:31;3.40;99.90
12303;DHT22;6214;48.012;7.862;2023-04-04T02:14:58;3.30;99.90
12303;DHT22;6214;48.012;7.862;2023-04-04T02:17:26;3.20;99.90
12303;DHT22;6214;48.012;7.862;2023-04-04T02:19:54;3.30;99.90
12303;DHT22;6214;48.012;7.862;2023-04-04T02:22:21;3.30;99.90
12303;DHT22;6214;48.012;7.862;2023-04-04T02:24:48;3.20;99.90
12303;DHT22;6214;48.012;7.862;2023-04-04T02:27:14;3.10;99.90
12303;DHT22;6214;48.012;7.862;2023-04-04T02:29:41;2.90;99.90
12303;DHT22;6214;48.012;7.862;2023-04-04T02:32:08;2.70;99.90
12303;DHT22;6214;48.012;7.862;2023-04-04T02:34:35;2.50;99.90
12303;DHT22;6214;48.012;7.862;2023-04-04T02:37:03;2.40;99.90
12303;DHT22;6214;48.012;7.862;2023-04-04T02:39:30;2.20;99.90
12303;DHT22;6214;48.012;7.862;2023-04-04T02:41:57;2.40;99.90
12303;DHT22;6214;48.012;7.862;2023-04-04T02:44:24;2.50;99.90
12303;DHT22;6214;48.012;7.862;2023-04-04T02:46:51;2.40;99.90
12303;DHT22;6214;48.012;7.862;2023-04-04T02:49:18;2.40;99.90
12303;DHT22;6214;48.012;7.862;2023-04-04T02:51:45;2.60;99.90
12303;DHT22;6214;48.012;7.862;2023-04-04T02:54:13;2.70;99.90
12303;DHT22;6214;48.012;7.862;2023-04-04T02:56:40;2.80;99.90
12303;DHT22;6214;48.012;7.862;2023-04-04T02:59:08;2.80;99.90
12303;DHT22;6214;48.012;7.862;2023-04-04T03:01:35;2.60;99.90
12303;DHT22;6214;48.012;7.862;2023-04-04T03:04:02;2.60;99.90
12303;DHT22;6214;48.012;7.862;2023-04-04T03:06:33;2.70;99.90
12303;DHT22;6214;48.012;7.862;2023-04-04T03:09:00;2.50;99.90
12303;DHT22;6214;48.012;7.862;2023-04-04T03:11:28;2.50;99.90
12303;DHT22;6214;48.012;7.862;2023-04-04T03:13:55;2.30;99.90
12303;DHT22;6214;48.012;7.862;2023-04-04T03:16:22;2.40;99.90
12303;DHT22;6214;48.012;7.862;2023-04-04T03:18:49;2.30;99.90
12303;DHT22;6214;48.012;7.862;2023-04-04T03:21:16;2.30;99.90
12303;DHT22;6214;48.012;7.862;2023-04-04T03:23:43;2.30;99.90
12303;DHT22;6214;48.012;7.862;2023-04-04T03:26:10;2.40;99.90
12303;DHT22;6214;48.012;7.862;2023-04-04T03:28:37;2.30;99.90
12303;DHT22;6214;48.012;7.862;2023-04-04T03:31:04;2.20;99.90
12303;DHT22;6214;48.012;7.862;2023-04-04T03:33:35;2.20;99.90
12303;DHT22;6214;48.012;7.862;2023-04-04T03:36:13;2.20;99.90
12303;DHT22;6214;48.012;7.862;2023-04-04T03:38:40;2.20;99.90
12303;DHT22;6214;48.012;7.862;2023-04-04T03:41:07;2.20;99.90
12303;DHT22;6214;48.012;7.862;2023-04-04T03:43:34;2.20;99.90
12303;DHT22;6214;48.012;7.862;2023-04-04T03:46:05;2.10;99.90
12303;DHT22;6214;48.012;7.862;2023-04-04T03:48:33;1.90;99.90
12303;DHT22;6214;48.012;7.862;2023-04-04T03:51:01;1.90;99.90
12303;DHT22;6214;48.012;7.862;2023-04-04T03:53:30;1.90;99.90
12303;DHT22;6214;48.012;7.862;2023-04-04T03:55:57;1.70;99.90
12303;DHT22;6214;48.012;7.862;2023-04-04T03:58:24;1.60;99.90
12303;DHT22;6214;48.012;7.862;2023-04-04T04:00:54;1.70;99.90
12303;DHT22;6214;48.012;7.862;2023-04-04T04:03:21;1.60;99.90
12303;DHT22;6214;48.012;7.862;2023-04-04T04:05:48;1.60;99.90
12303;DHT22;6214;48.012;7.862;2023-04-04T04:08:15;1.60;99.90
12303;DHT22;6214;48.012;7.862;2023-04-04T04:10:42;1.70;99.90
12303;DHT22;6214;48.012;7.862;2023-04-04T04:13:09;1.70;99.90
12303;DHT22;6214;48.012;7.862;2023-04-04T04:15:36;1.60;99.90
12303;DHT22;6214;48.012;7.862;2023-04-04T04:18:03;1.60;99.90
12303;DHT22;6214;48.012;7.862;2023-04-04T04:20:31;1.60;99.90
12303;DHT22;6214;48.012;7.862;2023-04-04T04:22:58;1.50;99.90
12303;DHT22;6214;48.012;7.862;2023-04-04T04:25:25;1.50;99.90
12303;DHT22;6214;48.012;7.862;2023-04-04T04:27:55;1.50;99.90
12303;DHT22;6214;48.012;7.862;2023-04-04T04:30:24;1.40;99.90
12303;DHT22;6214;48.012;7.862;2023-04-04T04:32:52;1.20;99.90
12303;DHT22;6214;48.012;7.862;2023-04-04T04:35:19;1.10;99.90
12303;DHT22;6214;48.012;7.862;2023-04-04T04:37:46;1.20;99.90
12303;DHT22;6214;48.012;7.862;2023-04-04T04:40:13;1.30;99.90
12303;DHT22;6214;48.012;7.862;2023-04-04T04:42:49;1.20;99.90
12303;DHT22;6214;48.012;7.862;2023-04-04T04:45:18;1.10;99.90
12303;DHT22;6214;48.012;7.862;2023-04-04T04:47:45;1.20;99.90
12303;DHT22;6214;48.012;7.862;2023-04-04T04:50:12;1.20;99.90
12303;DHT22;6214;48.012;7.862;2023-04-04T04:52:39;1.20;99.90
12303;DHT22;6214;48.012;7.862;2023-04-04T04:55:07;1.10;99.90
12303;DHT22;6214;48.012;7.862;2023-04-04T04:57:34;1.10;99.90
12303;DHT22;6214;48.012;7.862;2023-04-04T05:00:01;1.10;99.90
12303;DHT22;6214;48.012;7.862;2023-04-04T05:02:30;1.00;99.90
12303;DHT22;6214;48.012;7.862;2023-04-04T05:04:57;0.90;99.90
12303;DHT22;6214;48.012;7.862;2023-04-04T05:07:24;1.00;99.90
12303;DHT22;6214;48.012;7.862;2023-04-04T05:09:51;1.10;99.90
12303;DHT22;6214;48.012;7.862;2023-04-04T05:12:18;1.00;99.90
12303;DHT22;6214;48.012;7.862;2023-04-04T05:14:45;1.10;99.90
12303;DHT22;6214;48.012;7.862;2023-04-04T05:17:12;1.10;99.90
12303;DHT22;6214;48.012;7.862;2023-04-04T05:19:39;1.10;99.90
12303;DHT22;6214;48.012;7.862;2023-04-04T05:22:06;1.10;99.90
12303;DHT22;6214;48.012;7.862;2023-04-04T05:24:33;1.30;99.90
12303;DHT22;6214;48.012;7.862;2023-04-04T05:27:00;1.20;99.90
12303;DHT22;6214;48.012;7.862;2023-04-04T05:29:27;1.20;99.90
12303;DHT22;6214;48.012;7.862;2023-04-04T05:31:54;1.30;99.90
12303;DHT22;6214;48.012;7.862;2023-04-04T05:34:22;1.40;99.90
12303;DHT22;6214;48.012;7.862;2023-04-04T05:36:49;1.60;99.90
12303;DHT22;6214;48.012;7.862;2023-04-04T05:39:16;1.60;99.90
12303;DHT22;6214;48.012;7.862;2023-04-04T05:41:43;1.40;99.90
12303;DHT22;6214;48.012;7.862;2023-04-04T05:44:10;1.50;99.90
12303;DHT22;6214;48.012;7.862;2023-04-04T05:46:37;1.70;99.90
12303;DHT22;6214;48.012;7.862;2023-04-04T05:49:04;1.80;99.90
12303;DHT22;6214;48.012;7.862;2023-04-04T05:51:31;1.60;99.90
12303;DHT22;6214;48.012;7.862;2023-04-04T05:53:58;1.60;99.90
12303;DHT22;6214;48.012;7.862;2023-04-04T05:56:25;1.50;99.90
12303;DHT22;6214;48.012;7.862;2023-04-04T05:58:52;1.60;99.90
12303;DHT22;6214;48.012;7.862;2023-04-04T06:01:19;1.50;99.90
12303;DHT22;6214;48.012;7.862;2023-04-04T06:03:46;1.50;99.90
12303;DHT22;6214;48.012;7.862;2023-04-04T06:06:13;1.50;99.90
12303;DHT22;6214;48.012;7.862;2023-04-04T06:08:40;1.50;99.90
12303;DHT22;6214;48.012;7.862;2023-04-04T06:11:19;1.50;99.90
12303;DHT22;6214;48.012;7.862;2023-04-04T06:13:48;1.60;99.90
12303;DHT22;6214;48.012;7.862;2023-04-04T06:16:16;1.60;99.90
12303;DHT22;6214;48.012;7.862;2023-04-04T06:18:43;1.70;99.90
12303;DHT22;6214;48.012;7.862;2023-04-04T06:21:10;1.90;99.90
12303;DHT22;6214;48.012;7.862;2023-04-04T06:23:39;2.40;99.90
12303;DHT22;6214;48.012;7.862;2023-04-04T06:26:06;2.90;99.90
12303;DHT22;6214;48.012;7.862;2023-04-04T06:28:34;3.40;99.90
12303;DHT22;6214;48.012;7.862;2023-04-04T06:31:03;3.80;99.90
12303;DHT22;6214;48.012;7.862;2023-04-04T06:33:30;3.90;99.90
12303;DHT22;6214;48.012;7.862;2023-04-04T06:35:57;4.20;99.90
12303;DHT22;6214;48.012;7.862;2023-04-04T06:38:24;4.50;99.90
12303;DHT22;6214;48.012;7.862;2023-04-04T06:40:53;4.70;99.90
12303;DHT22;6214;48.012;7.862;2023-04-04T06:43:20;4.90;99.90
12303;DHT22;6214;48.012;7.862;2023-04-04T06:45:48;4.80;99.90
12303;DHT22;6214;48.012;7.862;2023-04-04T06:48:15;5.20;99.90
12303;DHT22;6214;48.012;7.862;2023-04-04T06:50:42;6.10;99.90
12303;DHT22;6214;48.012;7.862;2023-04-04T06:53:09;6.80;99.90
12303;DHT22;6214;48.012;7.862;2023-04-04T06:55:36;6.40;99.90
12303;DHT22;6214;48.012;7.862;2023-04-04T06:58:03;6.50;99.90
12303;DHT22;6214;48.012;7.862;2023-04-04T07:00:30;7.60;99.90
12303;DHT22;6214;48.012;7.862;2023-04-04T07:02:58;9.30;99.90
12303;DHT22;6214;48.012;7.862;2023-04-04T07:05:26;10.40;99.90
12303;DHT22;6214;48.012;7.862;2023-04-04T07:07:54;10.90;99.90
12303;DHT22;6214;48.012;7.862;2023-04-04T07:10:23;11.00;99.50
12303;DHT22;6214;48.012;7.862;2023-04-04T07:12:50;10.80;98.90
12303;DHT22;6214;48.012;7.862;2023-04-04T07:15:17;11.00;99.60
12303;DHT22;6214;48.012;7.862;2023-04-04T07:17:44;10.30;98.70
12303;DHT22;6214;48.012;7.862;2023-04-04T07:20:11;10.90;99.20
12303;DHT22;6214;48.012;7.862;2023-04-04T07:22:39;11.50;98.40
12303;DHT22;6214;48.012;7.862;2023-04-04T07:25:07;12.50;96.50
12303;DHT22;6214;48.012;7.862;2023-04-04T07:27:34;12.10;94.50
12303;DHT22;6214;48.012;7.862;2023-04-04T07:30:03;11.30;95.10
12303;DHT22;6214;48.012;7.862;2023-04-04T07:32:30;11.60;96.30
12303;DHT22;6214;48.012;7.862;2023-04-04T07:34:57;12.80;96.60
12303;DHT22;6214;48.012;7.862;2023-04-04T07:37:24;14.10;93.80
12303;DHT22;6214;48.012;7.862;2023-04-04T07:39:54;13.90;91.20
12303;DHT22;6214;48.012;7.862;2023-04-04T07:42:21;15.20;90.10
12303;DHT22;6214;48.012;7.862;2023-04-04T07:44:51;16.20;83.70
12303;DHT22;6214;48.012;7.862;2023-04-04T07:47:18;16.40;78.20
12303;DHT22;6214;48.012;7.862;2023-04-04T07:49:46;19.40;75.90
12303;DHT22;6214;48.012;7.862;2023-04-04T07:52:13;20.90;62.70
12303;DHT22;6214;48.012;7.862;2023-04-04T07:54:40;22.70;57.70
12303;DHT22;6214;48.012;7.862;2023-04-04T07:57:07;23.90;51.90
12303;DHT22;6214;48.012;7.862;2023-04-04T07:59:36;25.10;49.80
12303;DHT22;6214;48.012;7.862;2023-04-04T08:02:03;25.60;46.20
12303;DHT22;6214;48.012;7.862;2023-04-04T08:04:30;26.50;44.40
12303;DHT22;6214;48.012;7.862;2023-04-04T08:06:57;27.90;41.50
12303;DHT22;6214;48.012;7.862;2023-04-04T08:09:24;27.60;37.50
12303;DHT22;6214;48.012;7.862;2023-04-04T08:11:51;27.70;38.40
12303;DHT22;6214;48.012;7.862;2023-04-04T08:14:20;28.70;36.60
12303;DHT22;6214;48.012;7.862;2023-04-04T08:16:47;27.80;36.50
12303;DHT22;6214;48.012;7.862;2023-04-04T08:19:13;27.40;36.10
12303;DHT22;6214;48.012;7.862;2023-04-04T08:21:42;27.80;36.20
12303;DHT22;6214;48.012;7.862;2023-04-04T08:24:11;29.20;35.20
12303;DHT22;6214;48.012;7.862;2023-04-04T08:26:38;29.60;35.20
12303;DHT22;6214;48.012;7.862;2023-04-04T08:29:05;28.20;34.20
12303;DHT22;6214;48.012;7.862;2023-04-04T08:31:33;28.00;35.70
12303;DHT22;6214;48.012;7.862;2023-04-04T08:34:00;28.60;35.30
12303;DHT22;6214;48.012;7.862;2023-04-04T08:36:28;28.70;33.10
12303;DHT22;6214;48.012;7.862;2023-04-04T08:38:56;28.70;33.00
12303;DHT22;6214;48.012;7.862;2023-04-04T08:41:22;28.50;34.00
12303;DHT22;6214;48.012;7.862;2023-04-04T08:43:52;29.50;34.00
12303;DHT22;6214;48.012;7.862;2023-04-04T08:46:23;30.30;32.50
12303;DHT22;6214;48.012;7.862;2023-04-04T08:48:52;29.50;32.70
12303;DHT22;6214;48.012;7.862;2023-04-04T08:51:21;29.10;32.90
12303;DHT22;6214;48.012;7.862;2023-04-04T08:53:48;28.30;32.70
12303;DHT22;6214;48.012;7.862;2023-04-04T08:56:15;26.90;32.40
12303;DHT22;6214;48.012;7.862;2023-04-04T08:58:43;26.00;32.90
12303;DHT22;6214;48.012;7.862;2023-04-04T09:01:10;25.20;33.20
12303;DHT22;6214;48.012;7.862;2023-04-04T09:03:38;22.80;33.70
12303;DHT22;6214;48.012;7.862;2023-04-04T09:06:07;23.70;36.10
12303;DHT22;6214;48.012;7.862;2023-04-04T09:08:34;25.80;35.60
12303;DHT22;6214;48.012;7.862;2023-04-04T09:11:04;26.10;33.70
12303;DHT22;6214;48.012;7.862;2023-04-04T09:13:31;25.20;33.40
12303;DHT22;6214;48.012;7.862;2023-04-04T09:15:59;25.60;34.60
12303;DHT22;6214;48.012;7.862;2023-04-04T09:18:26;26.60;34.70
12303;DHT22;6214;48.012;7.862;2023-04-04T09:20:53;27.60;32.40
12303;DHT22;6214;48.012;7.862;2023-04-04T09:23:20;26.70;32.10
12303;DHT22;6214;48.012;7.862;2023-04-04T09:25:51;23.80;31.80
12303;DHT22;6214;48.012;7.862;2023-04-04T09:28:31;23.10;33.80
12303;DHT22;6214;48.012;7.862;2023-04-04T09:31:02;21.70;34.70
12303;DHT22;6214;48.012;7.862;2023-04-04T09:33:32;21.30;35.70
12303;DHT22;6214;48.012;7.862;2023-04-04T09:36:09;21.90;35.00
12303;DHT22;6214;48.012;7.862;2023-04-04T09:38:39;23.80;35.80
12303;DHT22;6214;48.012;7.862;2023-04-04T09:41:14;22.70;33.70
12303;DHT22;6214;48.012;7.862;2023-04-04T09:43:44;21.80;33.90
12303;DHT22;6214;48.012;7.862;2023-04-04T09:46:11;21.40;34.10
12303;DHT22;6214;48.012;7.862;2023-04-04T09:48:38;20.20;35.20
12303;DHT22;6214;48.012;7.862;2023-04-04T09:51:06;18.60;35.30
12303;DHT22;6214;48.012;7.862;2023-04-04T09:53:34;16.80;37.30
12303;DHT22;6214;48.012;7.862;2023-04-04T09:56:03;16.30;39.60
12303;DHT22;6214;48.012;7.862;2023-04-04T09:58:30;15.60;40.90
12303;DHT22;6214;48.012;7.862;2023-04-04T10:01:03;14.60;41.90
12303;DHT22;6214;48.012;7.862;2023-04-04T10:03:30;13.00;40.70
12303;DHT22;6214;48.012;7.862;2023-04-04T10:06:02;12.10;42.30
12303;DHT22;6214;48.012;7.862;2023-04-04T10:08:33;12.00;46.60
12303;DHT22;6214;48.012;7.862;2023-04-04T10:11:04;11.60;44.80
12303;DHT22;6214;48.012;7.862;2023-04-04T10:13:39;11.10;44.30
12303;DHT22;6214;48.012;7.862;2023-04-04T10:16:12;10.90;45.50
12303;DHT22;6214;48.012;7.862;2023-04-04T10:18:39;10.70;45.70
12303;DHT22;6214;48.012;7.862;2023-04-04T10:21:07;11.30;47.40
12303;DHT22;6214;48.012;7.862;2023-04-04T10:23:37;11.20;46.70
12303;DHT22;6214;48.012;7.862;2023-04-04T10:26:06;10.70;47.30
12303;DHT22;6214;48.012;7.862;2023-04-04T10:28:33;10.60;48.30
12303;DHT22;6214;48.012;7.862;2023-04-04T10:31:22;10.70;49.50
12303;DHT22;6214;48.012;7.862;2023-04-04T10:36:49;10.80;50.70
12303;DHT22;6214;48.012;7.862;2023-04-04T10:39:26;11.00;51.40
12303;DHT22;6214;48.012;7.862;2023-04-04T10:41:55;11.00;49.80
12303;DHT22;6214;48.012;7.862;2023-04-04T10:44:32;11.10;49.90
12303;DHT22;6214;48.012;7.862;2023-04-04T10:47:16;11.20;50.00
12303;DHT22;6214;48.012;7.862;2023-04-04T10:49:44;11.10;49.50
12303;DHT22;6214;48.012;7.862;2023-04-04T10:52:15;11.00;49.80
12303;DHT22;6214;48.012;7.862;2023-04-04T10:54:43;11.10;49.30
12303;DHT22;6214;48.012;7.862;2023-04-04T10:57:12;11.30;50.70
12303;DHT22;6214;48.012;7.862;2023-04-04T11:00:00;11.30;49.00
12303;DHT22;6214;48.012;7.862;2023-04-04T11:02:57;11.20;49.70
12303;DHT22;6214;48.012;7.862;2023-04-04T11:05:35;11.40;50.10
12303;DHT22;6214;48.012;7.862;2023-04-04T11:08:20;11.30;50.10
12303;DHT22;6214;48.012;7.862;2023-04-04T11:10:49;11.30;50.30
12303;DHT22;6214;48.012;7.862;2023-04-04T11:16:00;11.20;50.20
12303;DHT22;6214;48.012;7.862;2023-04-04T11:29:01;12.00;51.50
12303;DHT22;6214;48.012;7.862;2023-04-04T11:31:48;11.80;51.80
12303;DHT22;6214;48.012;7.862;2023-04-04T11:34:30;11.90;53.30
12303;DHT22;6214;48.012;7.862;2023-04-04T11:36:57;11.60;52.40
12303;DHT22;6214;48.012;7.862;2023-04-04T11:39:29;11.50;52.60
12303;DHT22;6214;48.012;7.862;2023-04-04T11:42:13;11.70;53.20
12303;DHT22;6214;48.012;7.862;2023-04-04T11:47:22;12.00;51.80
12303;DHT22;6214;48.012;7.862;2023-04-04T11:49:52;11.90;51.90
12303;DHT22;6214;48.012;7.862;2023-04-04T11:52:19;11.90;52.30
12303;DHT22;6214;48.012;7.862;2023-04-04T11:54:47;11.60;50.60
12303;DHT22;6214;48.012;7.862;2023-04-04T11:57:19;11.70;51.30
12303;DHT22;6214;48.012;7.862;2023-04-04T11:59:48;11.90;53.60
12303;DHT22;6214;48.012;7.862;2023-04-04T12:02:22;12.10;52.10
12303;DHT22;6214;48.012;7.862;2023-04-04T12:04:51;11.90;50.00
12303;DHT22;6214;48.012;7.862;2023-04-04T12:07:18;12.00;52.20
12303;DHT22;6214;48.012;7.862;2023-04-04T12:09:45;12.20;51.50
12303;DHT22;6214;48.012;7.862;2023-04-04T12:12:16;12.30;50.90
12303;DHT22;6214;48.012;7.862;2023-04-04T12:14:44;12.10;49.90
12303;DHT22;6214;48.012;7.862;2023-04-04T12:17:11;12.10;49.70
12303;DHT22;6214;48.012;7.862;2023-04-04T12:19:40;12.00;49.50
12303;DHT22;6214;48.012;7.862;2023-04-04T12:22:07;12.00;48.90
12303;DHT22;6214;48.012;7.862;2023-04-04T12:24:37;12.10;49.70
12303;DHT22;6214;48.012;7.862;2023-04-04T12:27:05;12.20;50.30
12303;DHT22;6214;48.012;7.862;2023-04-04T12:29:32;12.30;50.20
12303;DHT22;6214;48.012;7.862;2023-04-04T12:32:04;12.30;49.90
12303;DHT22;6214;48.012;7.862;2023-04-04T12:34:32;12.40;50.30
12303;DHT22;6214;48.012;7.862;2023-04-04T12:37:01;12.30;50.30
12303;DHT22;6214;48.012;7.862;2023-04-04T12:39:29;12.40;50.30
12303;DHT22;6214;48.012;7.862;2023-04-04T12:42:01;12.10;49.70
12303;DHT22;6214;48.012;7.862;2023-04-04T12:44:35;12.10;50.90
12303;DHT22;6214;48.012;7.862;2023-04-04T12:47:06;11.90;49.60
12303;DHT22;6214;48.012;7.862;2023-04-04T12:49:40;12.00;50.40
12303;DHT22;6214;48.012;7.862;2023-04-04T12:52:16;12.10;50.90
12303;DHT22;6214;48.012;7.862;2023-04-04T12:54:43;12.20;50.40
12303;DHT22;6214;48.012;7.862;2023-04-04T12:57:22;12.10;49.10
12303;DHT22;6214;48.012;7.862;2023-04-04T12:59:49;12.10;49.50
12303;DHT22;6214;48.012;7.862;2023-04-04T13:02:20;12.00;50.60
12303;DHT22;6214;48.012;7.862;2023-04-04T13:04:53;12.30;51.80
12303;DHT22;6214;48.012;7.862;2023-04-04T13:07:28;12.30;50.90
12303;DHT22;6214;48.012;7.862;2023-04-04T13:10:03;12.30;51.70
12303;DHT22;6214;48.012;7.862;2023-04-04T13:15:48;12.20;50.80
12303;DHT22;6214;48.012;7.862;2023-04-04T13:18:21;12.00;50.00
12303;DHT22;6214;48.012;7.862;2023-04-04T13:20:50;12.00;50.80
12303;DHT22;6214;48.012;7.862;2023-04-04T13:23:18;12.10;50.00
12303;DHT22;6214;48.012;7.862;2023-04-04T13:25:45;12.10;50.30
12303;DHT22;6214;48.012;7.862;2023-04-04T13:28:15;12.30;52.90
12303;DHT22;6214;48.012;7.862;2023-04-04T13:30:42;12.10;52.00
12303;DHT22;6214;48.012;7.862;2023-04-04T13:33:15;12.00;50.60
12303;DHT22;6214;48.012;7.862;2023-04-04T13:35:43;12.00;51.50
12303;DHT22;6214;48.012;7.862;2023-04-04T13:38:10;11.90;52.60
12303;DHT22;6214;48.012;7.862;2023-04-04T13:40:38;11.90;53.80
12303;DHT22;6214;48.012;7.862;2023-04-04T13:43:05;11.90;53.70
12303;DHT22;6214;48.012;7.862;2023-04-04T13:45:33;12.00;54.50
12303;DHT22;6214;48.012;7.862;2023-04-04T13:48:01;12.00;54.90
12303;DHT22;6214;48.012;7.862;2023-04-04T13:50:30;12.10;54.80
12303;DHT22;6214;48.012;7.862;2023-04-04T13:52:58;12.20;52.80
12303;DHT22;6214;48.012;7.862;2023-04-04T13:55:26;12.30;55.00
12303;DHT22;6214;48.012;7.862;2023-04-04T13:57:53;12.30;54.70
12303;DHT22;6214;48.012;7.862;2023-04-04T14:00:20;12.30;54.80
12303;DHT22;6214;48.012;7.862;2023-04-04T14:02:48;12.50;55.90
12303;DHT22;6214;48.012;7.862;2023-04-04T14:05:20;12.50;53.50
12303;DHT22;6214;48.012;7.862;2023-04-04T14:07:48;12.30;51.80
12303;DHT22;6214;48.012;7.862;2023-04-04T14:10:15;12.20;51.20
12303;DHT22;6214;48.012;7.862;2023-04-04T14:12:42;12.30;52.90
12303;DHT22;6214;48.012;7.862;2023-04-04T14:15:10;12.40;54.30
12303;DHT22;6214;48.012;7.862;2023-04-04T14:17:38;12.40;54.30
12303;DHT22;6214;48.012;7.862;2023-04-04T14:20:05;12.40;54.50
12303;DHT22;6214;48.012;7.862;2023-04-04T14:22:33;12.20;53.80
12303;DHT22;6214;48.012;7.862;2023-04-04T14:25:00;12.20;54.70
12303;DHT22;6214;48.012;7.862;2023-04-04T14:27:27;12.20;54.30
12303;DHT22;6214;48.012;7.862;2023-04-04T14:29:54;12.10;54.50
12303;DHT22;6214;48.012;7.862;2023-04-04T14:32:21;12.00;54.60
12303;DHT22;6214;48.012;7.862;2023-04-04T14:34:48;12.10;55.30
12303;DHT22;6214;48.012;7.862;2023-04-04T14:37:15;12.00;54.70
12303;DHT22;6214;48.012;7.862;2023-04-04T14:39:43;11.90;54.60
12303;DHT22;6214;48.012;7.862;2023-04-04T14:42:12;11.90;55.10
12303;DHT22;6214;48.012;7.862;2023-04-04T14:44:40;11.90;55.30
12303;DHT22;6214;48.012;7.862;2023-04-04T14:47:07;12.20;56.00
12303;DHT22;6214;48.012;7.862;2023-04-04T14:49:35;12.20;56.10
12303;DHT22;6214;48.012;7.862;2023-04-04T14:52:02;12.20;55.90
12303;DHT22;6214;48.012;7.862;2023-04-04T14:54:29;12.40;56.00
12303;DHT22;6214;48.012;7.862;2023-04-04T14:56:56;12.40;55.90
12303;DHT22;6214;48.012;7.862;2023-04-04T14:59:23;12.20;54.90
12303;DHT22;6214;48.012;7.862;2023-04-04T15:01:50;12.10;55.30
12303;DHT22;6214;48.012;7.862;2023-04-04T15:04:17;12.10;54.80
12303;DHT22;6214;48.012;7.862;2023-04-04T15:06:44;12.10;55.30
12303;DHT22;6214;48.012;7.862;2023-04-04T15:09:12;12.10;55.70
12303;DHT22;6214;48.012;7.862;2023-04-04T15:11:39;12.20;55.70
12303;DHT22;6214;48.012;7.862;2023-04-04T15:14:06;12.10;55.90
12303;DHT22;6214;48.012;7.862;2023-04-04T15:16:33;12.20;55.20
12303;DHT22;6214;48.012;7.862;2023-04-04T15:19:01;12.00;54.70
12303;DHT22;6214;48.012;7.862;2023-04-04T15:21:28;12.10;54.80
12303;DHT22;6214;48.012;7.862;2023-04-04T15:23:55;11.90;54.60
12303;DHT22;6214;48.012;7.862;2023-04-04T15:26:22;12.00;55.00
12303;DHT22;6214;48.012;7.862;2023-04-04T15:28:49;12.00;54.70
12303;DHT22;6214;48.012;7.862;2023-04-04T15:31:16;12.00;55.40
12303;DHT22;6214;48.012;7.862;2023-04-04T15:33:43;12.10;55.50
12303;DHT22;6214;48.012;7.862;2023-04-04T15:36:10;12.10;55.10
12303;DHT22;6214;48.012;7.862;2023-04-04T15:38:38;11.90;54.60
12303;DHT22;6214;48.012;7.862;2023-04-04T15:41:09;11.90;55.70
12303;DHT22;6214;48.012;7.862;2023-04-04T15:43:36;11.90;55.50
12303;DHT22;6214;48.012;7.862;2023-04-04T15:46:03;11.90;55.80
12303;DHT22;6214;48.012;7.862;2023-04-04T15:48:30;12.00;55.50
12303;DHT22;6214;48.012;7.862;2023-04-04T15:50:59;11.90;55.20
12303;DHT22;6214;48.012;7.862;2023-04-04T15:53:29;11.80;55.00
12303;DHT22;6214;48.012;7.862;2023-04-04T15:55:57;11.70;55.20
12303;DHT22;6214;48.012;7.862;2023-04-04T15:58:24;11.80;55.40
12303;DHT22;6214;48.012;7.862;2023-04-04T16:00:52;11.70;55.40
12303;DHT22;6214;48.012;7.862;2023-04-04T16:03:19;11.70;56.70
12303;DHT22;6214;48.012;7.862;2023-04-04T16:05:47;11.70;56.00
12303;DHT22;6214;48.012;7.862;2023-04-04T16:08:14;11.60;55.10
12303;DHT22;6214;48.012;7.862;2023-04-04T16:10:41;11.60;56.10
12303;DHT22;6214;48.012;7.862;2023-04-04T16:13:11;11.70;55.80
12303;DHT22;6214;48.012;7.862;2023-04-04T16:15:38;11.70;55.90
12303;DHT22;6214;48.012;7.862;2023-04-04T16:18:05;11.70;55.10
12303;DHT22;6214;48.012;7.862;2023-04-04T16:20:33;11.60;55.80
12303;DHT22;6214;48.012;7.862;2023-04-04T16:23:00;11.60;56.00
12303;DHT22;6214;48.012;7.862;2023-04-04T16:25:27;11.50;57.00
12303;DHT22;6214;48.012;7.862;2023-04-04T16:27:54;11.50;56.50